Time;durP1;ratioP1;P1;durP2;ratioP2;P2;SDS_P1;SDS_P2;PMS_P1;PMS_P2;Temp;Humidity;BMP_temperature;BMP_pressure;BME280_temperature;BME280_humidity;BME280_pressure;Samples;Min_cycle;Max_cycle;Signal;HPM_P1;HPM_P2
2022/07/17 00:00:42;;;;;;;4.63;3.43;;;;;;;18.37;52.79;100161.38;5003927;28;20482;-76
2022/07/17 00:03:15;;;;;;;3.53;3.23;;;;;;;18.36;52.42;100155.19;5006928;28;20942;-77
2022/07/17 00:05:42;;;;;;;3.63;3.33;;;;;;;18.35;52.59;100165.00;5004069;28;20530;-78
2022/07/17 00:08:09;;;;;;;3.83;3.37;;;;;;;18.39;52.46;100162.06;5005860;28;20469;-77
2022/07/17 00:10:36;;;;;;;6.20;3.83;;;;;;;18.41;52.24;100166.28;5002733;28;20480;-77
2022/07/17 00:13:01;;;;;;;3.57;2.60;;;;;;;18.42;52.12;100167.16;5008113;28;20445;-77
2022/07/17 00:15:27;;;;;;;3.73;3.10;;;;;;;18.32;52.17;100159.94;5007609;28;20869;-77
2022/07/17 00:17:53;;;;;;;6.97;3.30;;;;;;;18.18;52.59;100162.97;5009887;28;20488;-78
2022/07/17 00:20:18;;;;;;;3.00;2.70;;;;;;;17.99;52.97;100166.38;5011099;28;20197;-78
2022/07/17 00:22:44;;;;;;;3.43;3.10;;;;;;;17.89;53.38;100163.66;5006296;28;20316;-78
2022/07/17 00:25:10;;;;;;;3.73;3.10;;;;;;;17.82;53.29;100165.16;5024265;28;20202;-78
2022/07/17 00:27:36;;;;;;;5.23;3.17;;;;;;;17.76;53.44;100168.28;5023718;28;20205;-78
2022/07/17 00:30:03;;;;;;;5.27;3.53;;;;;;;17.73;53.38;100173.88;5010082;28;20916;-78
2022/07/17 00:32:29;;;;;;;4.30;3.40;;;;;;;17.72;53.63;100163.41;5007904;28;20498;-78
2022/07/17 00:34:54;;;;;;;4.20;2.90;;;;;;;17.74;53.40;100164.09;5009049;28;20524;-77
2022/07/17 00:37:20;;;;;;;3.63;3.40;;;;;;;17.74;53.55;100162.28;5007383;28;20324;-78
2022/07/17 00:39:45;;;;;;;3.17;2.43;;;;;;;17.73;53.50;100165.91;5008274;28;20239;-78
2022/07/17 00:42:12;;;;;;;4.40;3.40;;;;;;;17.74;53.31;100162.28;5007682;28;20610;-78
2022/07/17 00:44:40;;;;;;;5.70;3.07;;;;;;;17.74;53.36;100162.28;5007816;28;20740;-77
2022/07/17 00:47:12;;;;;;;3.30;2.80;;;;;;;17.70;53.40;100167.00;5007696;28;20514;-77
2022/07/17 00:49:39;;;;;;;3.10;2.80;;;;;;;17.66;53.46;100160.28;5007944;28;20452;-78
2022/07/17 00:52:04;;;;;;;3.40;2.83;;;;;;;17.64;53.50;100162.22;5007418;28;20820;-78
2022/07/17 00:54:30;;;;;;;3.30;3.00;;;;;;;17.63;53.56;100162.31;5007845;28;20985;-78
2022/07/17 00:56:56;;;;;;;5.27;2.97;;;;;;;17.63;53.61;100162.31;5008034;28;20233;-77
2022/07/17 00:59:24;;;;;;;3.00;2.70;;;;;;;17.62;53.79;100164.16;5007460;28;20536;-78
2022/07/17 01:04:32;;;;;;;4.33;3.93;;;;;;;17.56;53.88;100164.69;5013314;23;20509;-79
2022/07/17 01:07:00;;;;;;;3.70;3.07;;;;;;;17.58;54.02;100159.22;4993835;28;20463;-79
2022/07/17 01:09:29;;;;;;;2.70;2.50;;;;;;;17.57;54.01;100163.69;4993937;28;20540;-79
2022/07/17 01:11:55;;;;;;;7.93;3.00;;;;;;;17.54;54.10;100163.94;5004650;28;20467;-79
2022/07/17 01:14:22;;;;;;;3.70;2.73;;;;;;;17.51;54.22;100163.38;5013638;28;20545;-79
2022/07/17 01:16:48;;;;;;;2.67;2.47;;;;;;;17.47;54.68;100160.97;5013655;28;20484;-79
2022/07/17 01:19:14;;;;;;;4.10;3.67;;;;;;;17.47;54.46;100160.13;5013185;28;20964;-80
2022/07/17 01:21:41;;;;;;;4.27;3.07;;;;;;;17.48;54.24;100154.69;5013520;28;20352;-79
2022/07/17 01:24:07;;;;;;;3.87;3.37;;;;;;;17.50;54.25;100159.03;5013310;28;20240;-80
2022/07/17 01:26:33;;;;;;;3.17;2.93;;;;;;;17.47;54.47;100163.63;5012836;28;20480;-80
2022/07/17 01:28:58;;;;;;;4.40;3.53;;;;;;;17.41;54.68;100163.28;5013446;28;20208;-79
2022/07/17 01:31:24;;;;;;;3.57;3.27;;;;;;;17.30;54.97;100164.19;5013026;28;20236;-79
2022/07/17 01:33:49;;;;;;;4.68;3.67;;;;;;;17.24;55.65;100167.34;5012776;28;20483;-79
2022/07/17 01:36:15;;;;;;;3.77;3.40;;;;;;;17.20;55.66;100166.78;5013348;28;20264;-79
2022/07/17 01:38:40;;;;;;;3.03;2.83;;;;;;;17.14;55.54;100166.41;5014235;28;20567;-79
2022/07/17 01:41:06;;;;;;;4.50;3.03;;;;;;;17.11;55.78;100164.03;5014981;28;20233;-79
2022/07/17 01:43:31;;;;;;;4.83;3.60;;;;;;;17.06;55.79;100167.03;5014338;28;20214;-79
2022/07/17 01:45:57;;;;;;;4.33;3.97;;;;;;;17.01;55.90;100162.13;5015701;28;20286;-79
2022/07/17 01:48:27;;;;;;;5.80;3.13;;;;;;;16.97;56.02;100162.50;5013212;28;20772;-79
2022/07/17 01:50:53;;;;;;;5.23;3.60;;;;;;;16.95;56.10;100164.44;5013366;28;20211;-79
2022/07/17 01:53:18;;;;;;;3.40;3.10;;;;;;;16.83;56.49;100160.97;5012934;28;20458;-79
2022/07/17 01:55:44;;;;;;;3.70;3.40;;;;;;;16.78;56.59;100163.16;5013105;28;20207;-79
2022/07/17 01:58:09;;;;;;;4.90;3.50;;;;;;;16.73;56.67;100165.28;5013168;28;20235;-80
2022/07/17 02:00:35;;;;;;;4.17;3.53;;;;;;;16.66;56.86;100156.13;5013443;28;20695;-79
2022/07/17 02:03:00;;;;;;;4.35;3.95;;;;;;;16.60;57.36;100160.97;5011095;28;20862;-79
2022/07/17 02:05:25;;;;;;;4.70;4.10;;;;;;;16.53;57.68;100162.44;5010976;28;20207;-79
2022/07/17 02:07:51;;;;;;;6.20;3.43;;;;;;;16.44;57.98;100171.09;5012809;28;20604;-79
2022/07/17 02:10:16;;;;;;;4.30;3.53;;;;;;;16.32;58.28;100178.22;5012449;28;20227;-80
2022/07/17 02:12:45;;;;;;;4.23;3.33;;;;;;;16.27;58.63;100168.94;4995001;28;20471;-79
2022/07/17 02:15:11;;;;;;;4.20;3.80;;;;;;;16.25;58.42;100176.16;5011507;28;20210;-79
2022/07/17 02:17:39;;;;;;;5.10;4.13;;;;;;;16.25;58.52;100170.88;5012903;28;20477;-79
2022/07/17 02:20:06;;;;;;;5.93;4.73;;;;;;;16.24;58.48;100164.72;5012254;28;20527;-79
2022/07/17 02:22:32;;;;;;;6.33;3.53;;;;;;;16.24;58.32;100169.19;5012438;28;20481;-79
2022/07/17 02:24:58;;;;;;;5.17;3.30;;;;;;;16.24;58.42;100167.38;5012653;28;20537;-79
2022/07/17 02:27:23;;;;;;;3.60;3.30;;;;;;;16.25;58.45;100170.88;5012651;28;21089;-79
2022/07/17 02:29:49;;;;;;;3.83;3.43;;;;;;;16.27;58.48;100168.94;5012066;28;20207;-80
2022/07/17 02:32:14;;;;;;;4.30;3.25;;;;;;;16.32;58.57;100166.78;5011968;28;20569;-79
2022/07/17 02:34:40;;;;;;;3.90;3.20;;;;;;;16.35;58.55;100163.88;5012064;28;20254;-79
2022/07/17 02:37:06;;;;;;;4.40;3.83;;;;;;;16.29;58.71;100174.97;5011875;28;20224;-79
2022/07/17 02:39:31;;;;;;;4.20;3.80;;;;;;;16.21;59.02;100172.09;5012088;28;20471;-79
2022/07/17 02:41:57;;;;;;;4.00;3.30;;;;;;;16.19;58.85;100169.53;5011793;28;20238;-79
2022/07/17 02:44:22;;;;;;;3.43;3.13;;;;;;;16.24;58.79;100171.84;5012073;28;20227;-79
2022/07/17 02:46:48;;;;;;;3.93;3.43;;;;;;;16.25;58.89;100168.22;4994398;28;20982;-79
2022/07/17 02:49:13;;;;;;;3.10;2.90;;;;;;;16.27;58.92;100174.25;5012081;28;20288;-80
2022/07/17 02:51:39;;;;;;;3.93;2.83;;;;;;;16.27;58.74;100169.78;5011540;28;20322;-80
2022/07/17 02:54:04;;;;;;;4.07;3.30;;;;;;;16.31;58.62;100170.38;5012493;28;20254;-79
2022/07/17 02:56:29;;;;;;;4.30;4.00;;;;;;;16.36;58.59;100169.09;5011565;28;20307;-79
2022/07/17 02:58:55;;;;;;;4.00;3.27;;;;;;;16.38;58.42;100161.00;4994242;28;20293;-79
2022/07/17 03:01:20;;;;;;;4.93;3.65;;;;;;;16.42;58.69;100161.56;5010549;28;20483;-79
2022/07/17 03:03:46;;;;;;;4.07;3.60;;;;;;;16.44;58.68;100164.97;5006292;28;20528;-79
2022/07/17 03:06:11;;;;;;;4.30;3.90;;;;;;;16.39;58.55;100152.09;5011922;28;20203;-79
2022/07/17 03:08:37;;;;;;;3.60;3.30;;;;;;;16.38;58.47;100161.00;5011422;28;20203;-80
2022/07/17 03:11:02;;;;;;;3.80;3.50;;;;;;;16.34;58.53;100155.09;4991618;28;20238;-79
2022/07/17 03:13:27;;;;;;;3.33;3.03;;;;;;;16.27;58.60;100156.53;5008331;28;20294;-79
2022/07/17 03:15:54;;;;;;;5.13;3.20;;;;;;;16.20;58.55;100157.13;5008718;28;20204;-80
2022/07/17 03:18:19;;;;;;;5.27;3.33;;;;;;;16.11;58.73;100156.88;5008408;28;20254;-79
2022/07/17 03:20:45;;;;;;;4.60;4.03;;;;;;;16.04;58.95;100158.34;5008255;28;20487;-80
2022/07/17 03:23:11;;;;;;;3.43;3.17;;;;;;;15.98;59.01;100153.50;5008573;28;20218;-79
2022/07/17 03:25:36;;;;;;;3.70;3.40;;;;;;;15.96;58.91;100155.44;5008339;28;20257;-79
2022/07/17 03:28:02;;;;;;;3.37;3.07;;;;;;;15.93;58.98;100160.97;5008203;28;20207;-79
2022/07/17 03:30:27;;;;;;;3.80;3.10;;;;;;;15.88;58.94;100165.78;5008188;28;20215;-79
2022/07/17 03:32:52;;;;;;;4.00;3.70;;;;;;;15.83;59.09;100162.66;5008534;28;20262;-79
2022/07/17 03:35:18;;;;;;;4.07;3.33;;;;;;;15.80;59.28;100174.31;5008012;28;20245;-80
2022/07/17 03:37:44;;;;;;;3.93;3.47;;;;;;;15.74;59.30;100166.00;5008495;28;20345;-79
2022/07/17 03:40:10;;;;;;;4.53;4.10;;;;;;;15.76;59.14;100164.06;5008330;28;20242;-79
2022/07/17 03:42:36;;;;;;;3.67;3.37;;;;;;;15.74;59.38;100169.47;5007946;28;20234;-78
2022/07/17 03:45:01;;;;;;;4.97;3.37;;;;;;;15.69;59.45;100167.19;5009144;28;20443;-79
2022/07/17 03:47:26;;;;;;;6.17;5.40;;;;;;;15.60;59.71;100165.19;5007717;28;20293;-79
2022/07/17 03:49:52;;;;;;;4.63;4.20;;;;;;;15.56;59.94;100161.09;5008346;28;20210;-79
2022/07/17 03:52:17;;;;;;;3.63;3.10;;;;;;;15.54;59.81;100163.03;5007873;28;20665;-79
2022/07/17 03:54:42;;;;;;;4.10;3.60;;;;;;;15.47;60.24;100170.59;5008699;28;20221;-79
2022/07/17 03:57:08;;;;;;;4.93;3.23;;;;;;;15.46;60.23;100163.59;5008373;28;20230;-79
2022/07/17 03:59:33;;;;;;;3.53;3.23;;;;;;;15.47;60.05;100164.44;5008076;28;20209;-79
2022/07/17 04:01:59;;;;;;;6.23;3.43;;;;;;;15.47;60.16;100167.94;5007817;28;20672;-79
2022/07/17 04:04:24;;;;;;;5.50;3.93;;;;;;;15.42;60.32;100170.09;5007763;28;20842;-79
2022/07/17 04:06:49;;;;;;;3.63;3.33;;;;;;;15.32;60.83;100170.91;5008997;28;20211;-80
2022/07/17 04:09:15;;;;;;;4.57;4.17;;;;;;;15.27;60.75;100172.06;5007601;28;20214;-80
2022/07/17 04:11:40;;;;;;;10.30;3.90;;;;;;;15.22;60.77;100174.19;5010169;28;20295;-79
2022/07/17 04:14:06;;;;;;;5.70;3.63;;;;;;;15.19;60.91;100176.25;5011335;28;20655;-80
2022/07/17 04:16:32;;;;;;;4.00;3.70;;;;;;;15.17;61.18;100178.16;5011392;28;20229;-80
2022/07/17 04:18:58;;;;;;;4.80;3.80;;;;;;;15.14;61.34;100173.94;5012858;28;20495;-80
2022/07/17 04:21:24;;;;;;;5.60;4.20;;;;;;;15.08;61.59;100171.75;5011076;28;20516;-80
2022/07/17 04:23:50;;;;;;;4.33;3.63;;;;;;;15.08;61.65;100174.38;5012639;28;20210;-80
2022/07/17 04:26:15;;;;;;;4.80;3.70;;;;;;;15.08;61.62;100171.75;5011946;28;20460;-81
2022/07/17 04:28:41;;;;;;;9.27;4.47;;;;;;;15.15;61.24;100174.75;5012241;28;20692;-81
2022/07/17 04:31:07;;;;;;;4.00;3.60;;;;;;;15.17;61.55;100175.50;5011965;28;20292;-81
2022/07/17 04:33:34;;;;;;;4.80;4.30;;;;;;;15.18;61.82;100191.28;5012066;28;20990;-80
2022/07/17 04:36:00;;;;;;;4.63;3.80;;;;;;;15.17;61.73;100178.97;5011918;28;20549;-82
2022/07/17 04:38:25;;;;;;;3.50;3.20;;;;;;;15.26;61.39;100182.78;5013512;28;20699;-80
2022/07/17 04:40:51;;;;;;;5.13;4.00;;;;;;;15.33;61.09;100184.00;5016053;28;20226;-80
2022/07/17 04:43:17;;;;;;;3.93;3.53;;;;;;;15.43;60.74;100178.88;5017984;28;20869;-81
2022/07/17 04:45:42;;;;;;;4.30;3.07;;;;;;;15.59;60.06;100174.09;5016543;28;20468;-80
2022/07/17 04:48:07;;;;;;;3.27;2.97;;;;;;;15.72;59.71;100174.06;5016666;28;20345;-80
2022/07/17 04:50:37;;;;;;;3.53;3.17;;;;;;;15.83;59.24;100179.38;5014775;28;20216;-80
2022/07/17 04:53:03;;;;;;;3.70;3.40;;;;;;;16.11;58.54;100180.75;5009227;28;20233;-80
2022/07/17 04:55:28;;;;;;;3.37;2.80;;;;;;;16.51;57.23;100172.31;5016790;28;20465;-81
2022/07/17 04:57:57;;;;;;;5.00;2.97;;;;;;;17.25;55.09;100175.22;5019901;28;20222;-81
2022/07/17 05:00:23;;;;;;;3.40;2.63;;;;;;;18.91;50.53;100163.66;5012986;28;20211;-81
2022/07/17 05:02:49;;;;;;;3.93;3.63;;;;;;;20.58;46.04;100160.63;5017925;28;20554;-81
2022/07/17 05:05:15;;;;;;;4.00;3.60;;;;;;;21.81;43.02;100161.78;5018942;28;20421;-81
2022/07/17 05:07:41;;;;;;;4.73;2.70;;;;;;;22.83;40.70;100170.84;4997340;28;20467;-81
2022/07/17 05:10:08;;;;;;;3.20;3.00;;;;;;;23.70;38.76;100164.09;5014797;28;20208;-81
2022/07/17 05:12:35;;;;;;;3.70;3.40;;;;;;;24.45;37.26;100166.50;5018737;28;20230;-81
2022/07/17 05:15:01;;;;;;;4.60;3.10;;;;;;;25.22;35.53;100160.41;5019644;28;20458;-82
2022/07/17 05:17:27;;;;;;;5.03;3.07;;;;;;;25.65;34.53;100168.75;5019589;28;20476;-81
2022/07/17 05:19:53;;;;;;;3.43;3.13;;;;;;;25.96;33.79;100167.84;5019724;28;20459;-83
2022/07/17 05:22:22;;;;;;;2.93;2.50;;;;;;;26.12;33.81;100172.22;5018467;28;20350;-83
2022/07/17 05:24:48;;;;;;;5.57;3.10;;;;;;;26.46;32.89;100171.66;5019342;28;20450;-82
2022/07/17 05:27:14;;;;;;;4.47;3.00;;;;;;;27.11;31.89;100164.56;5020104;28;20219;-81
2022/07/17 05:29:40;;;;;;;3.97;2.77;;;;;;;27.53;31.01;100163.75;5019632;28;20455;-81
2022/07/17 05:32:05;;;;;;;3.90;3.60;;;;;;;27.88;30.71;100166.53;5019520;28;20197;-81
2022/07/17 05:34:31;;;;;;;3.13;2.83;;;;;;;28.25;29.88;100172.59;5019339;28;20224;-82
2022/07/17 05:36:56;;;;;;;3.67;2.93;;;;;;;28.74;29.46;100168.91;5018625;28;20225;-81
2022/07/17 05:39:22;;;;;;;3.27;2.70;;;;;;;28.75;29.15;100169.72;5018963;28;20215;-81
2022/07/17 05:41:47;;;;;;;3.23;2.30;;;;;;;28.85;28.83;100168.31;5017192;28;20236;-83
2022/07/17 05:44:13;;;;;;;3.20;2.70;;;;;;;29.27;28.38;100162.81;5018707;28;20207;-81
2022/07/17 05:46:42;;;;;;;3.03;2.60;;;;;;;29.58;27.68;100164.91;5018615;28;20256;-81
2022/07/17 05:49:08;;;;;;;4.23;2.77;;;;;;;29.93;26.84;100157.41;5018700;28;20216;-81
2022/07/17 05:51:34;;;;;;;2.50;2.30;;;;;;;30.29;26.84;100158.00;5017635;28;20495;-82
2022/07/17 05:54:00;;;;;;;2.90;2.70;;;;;;;30.58;26.31;100154.75;5019550;28;20470;-82
2022/07/17 05:56:26;;;;;;;3.00;2.57;;;;;;;30.82;25.92;100161.34;5018688;28;20462;-82
2022/07/17 05:58:52;;;;;;;3.50;3.20;;;;;;;31.05;25.60;100160.78;5019331;28;20455;-82
2022/07/17 06:01:20;;;;;;;4.73;2.40;;;;;;;31.22;25.16;100165.72;5020285;28;20275;-82
2022/07/17 06:03:48;;;;;;;3.17;2.90;;;;;;;31.53;24.47;100165.69;5017822;28;20493;-83
2022/07/17 06:06:14;;;;;;;3.17;2.90;;;;;;;31.88;23.96;100159.75;5018879;28;20221;-81
2022/07/17 06:08:43;;;;;;;2.90;2.60;;;;;;;31.90;24.16;100167.69;5018927;28;20478;-82
2022/07/17 06:11:08;;;;;;;2.93;2.67;;;;;;;32.06;24.04;100155.44;5019343;28;20232;-81
2022/07/17 06:13:34;;;;;;;3.50;3.20;;;;;;;32.04;23.87;100152.94;5017431;28;20463;-82
2022/07/17 06:15:59;;;;;;;5.33;2.80;;;;;;;31.92;23.78;100165.59;5016550;28;20204;-81
2022/07/17 06:18:26;;;;;;;2.50;2.30;;;;;;;32.06;24.00;100166.31;5015536;28;20602;-82
2022/07/17 06:20:52;;;;;;;2.80;2.57;;;;;;;32.43;23.53;100156.25;5016111;28;20208;-81
2022/07/17 06:23:17;;;;;;;2.97;2.63;;;;;;;32.44;23.47;100157.09;5015461;28;20451;-81
2022/07/17 06:25:42;;;;;;;4.03;2.37;;;;;;;32.66;22.94;100157.47;5013264;28;20474;-81
2022/07/17 06:28:08;;;;;;;3.90;2.63;;;;;;;32.78;22.53;100153.75;5013242;28;20211;-82
2022/07/17 06:30:33;;;;;;;3.40;2.80;;;;;;;32.95;22.83;100153.94;5012676;28;20204;-82
2022/07/17 06:32:59;;;;;;;2.80;2.60;;;;;;;33.00;22.55;100164.09;5012384;28;20507;-82
2022/07/17 06:35:24;;;;;;;3.37;3.07;;;;;;;32.96;22.32;100165.63;5012750;28;20209;-82
2022/07/17 06:37:49;;;;;;;2.47;2.27;;;;;;;32.89;22.48;100162.16;5012514;28;20224;-82
2022/07/17 06:40:15;;;;;;;3.20;2.90;;;;;;;32.76;22.33;100169.47;5012308;28;20295;-82
2022/07/17 06:42:40;;;;;;;2.70;2.50;;;;;;;32.49;23.04;100168.97;5010434;28;20240;-80
2022/07/17 06:45:06;;;;;;;2.77;2.57;;;;;;;32.46;23.04;100174.00;5011599;28;20228;-82
2022/07/17 06:47:32;;;;;;;4.50;2.47;;;;;;;32.53;22.89;100167.44;5011325;28;20203;-81
2022/07/17 06:49:57;;;;;;;2.40;2.20;;;;;;;32.66;23.03;100177.34;5010530;28;20444;-82
2022/07/17 06:52:22;;;;;;;4.67;2.00;;;;;;;32.98;22.09;100171.69;5011999;28;20228;-81
2022/07/17 06:54:48;;;;;;;2.93;2.30;;;;;;;32.76;22.55;100169.47;5625360;23;20335;-80
2022/07/17 06:57:13;;;;;;;3.53;2.70;;;;;;;32.31;23.30;100169.78;4974181;28;20602;-80
2022/07/17 06:59:40;;;;;;;2.63;2.00;;;;;;;32.65;23.09;100174.84;4977403;28;20357;-79
2022/07/17 07:02:06;;;;;;;3.87;2.63;;;;;;;32.79;23.13;100173.63;4967656;28;20899;-80
2022/07/17 07:04:31;;;;;;;2.83;2.60;;;;;;;32.98;22.43;100174.41;4976583;23;21218;-79
2022/07/17 07:06:57;;;;;;;2.93;2.20;;;;;;;33.15;22.61;100174.59;4965842;28;20743;-77
2022/07/17 07:09:22;;;;;;;2.13;1.87;;;;;;;32.80;22.84;100172.56;4967730;28;20220;-76
2022/07/17 07:11:48;;;;;;;3.33;2.37;;;;;;;32.71;22.99;100172.03;4970492;28;20202;-76
2022/07/17 07:14:13;;;;;;;4.60;2.37;;;;;;;32.98;22.97;100175.22;4970575;28;20202;-76
2022/07/17 07:16:39;;;;;;;4.83;2.97;;;;;;;33.20;22.36;100164.69;4971721;28;20799;-76
2022/07/17 07:19:04;;;;;;;2.87;2.63;;;;;;;32.98;22.88;100166.25;4977775;28;20205;-76
2022/07/17 07:21:29;;;;;;;3.30;3.00;;;;;;;32.97;22.50;100172.72;4986435;28;20233;-76
2022/07/17 07:23:55;;;;;;;3.23;2.93;;;;;;;33.38;22.35;100163.78;4982475;28;20242;-76
2022/07/17 07:26:22;;;;;;;2.70;2.00;;;;;;;33.79;21.60;100169.41;4972481;28;20202;-75
2022/07/17 07:28:47;;;;;;;2.73;2.10;;;;;;;34.02;21.65;100165.84;4968426;28;20460;-76
2022/07/17 07:31:13;;;;;;;3.27;2.47;;;;;;;34.47;20.97;100159.75;4968358;28;20453;-77
2022/07/17 07:33:39;;;;;;;3.33;2.53;;;;;;;34.74;20.97;100157.31;4966053;28;20490;-76
2022/07/17 07:36:05;;;;;;;2.50;2.30;;;;;;;34.50;21.27;100168.28;4967954;28;20238;-77
2022/07/17 07:38:30;;;;;;;4.80;2.80;;;;;;;34.49;21.42;100155.72;4965615;28;20202;-76
2022/07/17 07:40:56;;;;;;;3.30;2.90;;;;;;;34.52;21.04;100155.22;4968288;28;20471;-76
2022/07/17 07:43:23;;;;;;;2.73;2.53;;;;;;;34.18;21.74;100158.88;4968767;28;20230;-76
2022/07/17 07:45:49;;;;;;;3.47;3.17;;;;;;;34.29;21.53;100158.00;4948708;28;20473;-76
2022/07/17 07:48:14;;;;;;;3.67;2.20;;;;;;;34.10;21.65;100158.16;4968339;28;20473;-77
2022/07/17 07:50:40;;;;;;;4.03;3.07;;;;;;;33.87;21.81;100163.63;4968119;28;20198;-77
2022/07/17 07:53:05;;;;;;;3.30;2.97;;;;;;;33.61;22.31;100162.16;4968770;28;20206;-77
2022/07/17 07:55:31;;;;;;;2.97;2.67;;;;;;;33.50;22.50;100163.78;4968010;28;20697;-77
2022/07/17 07:58:11;;;;;;;2.60;2.40;;;;;;;33.76;22.24;100159.81;4951765;28;20225;-76
2022/07/17 08:00:37;;;;;;;3.13;2.43;;;;;;;33.46;22.60;100162.63;4967001;28;20252;-77
2022/07/17 08:03:03;;;;;;;4.53;2.90;;;;;;;33.70;22.36;100167.06;4968722;28;21014;-76
2022/07/17 08:05:29;;;;;;;4.10;2.60;;;;;;;33.71;22.36;100167.88;4949874;28;20256;-77
2022/07/17 08:07:54;;;;;;;3.03;2.63;;;;;;;33.97;22.07;100168.44;4970913;28;20511;-76
2022/07/17 08:10:20;;;;;;;2.93;2.70;;;;;;;34.26;21.73;100162.03;4968564;28;20198;-76
2022/07/17 08:12:46;;;;;;;3.47;2.73;;;;;;;34.14;22.01;100167.53;4952388;28;20677;-76
2022/07/17 08:15:11;;;;;;;2.70;2.50;;;;;;;33.88;22.05;100160.63;4964391;28;20336;-76
2022/07/17 08:17:37;;;;;;;4.47;2.87;;;;;;;34.02;22.07;100169.38;4967959;28;20623;-76
2022/07/17 08:20:03;;;;;;;3.07;2.40;;;;;;;34.27;21.90;100171.91;4968508;28;20201;-77
2022/07/17 08:22:28;;;;;;;2.93;2.63;;;;;;;34.06;21.61;100167.91;4968410;28;20418;-76
2022/07/17 08:24:54;;;;;;;2.13;2.03;;;;;;;33.94;22.30;100167.03;4967530;28;20473;-76
2022/07/17 08:27:19;;;;;;;3.13;2.23;;;;;;;33.73;22.58;100165.75;4970367;28;20569;-76
2022/07/17 08:29:45;;;;;;;4.53;2.80;;;;;;;33.76;22.83;100172.63;4968111;28;20208;-76
2022/07/17 08:32:10;;;;;;;4.10;3.30;;;;;;;33.20;22.85;100167.41;4969823;28;20491;-76
2022/07/17 08:34:36;;;;;;;3.13;2.83;;;;;;;32.17;23.92;100171.81;4968632;28;20230;-76
2022/07/17 08:37:02;;;;;;;2.50;2.30;;;;;;;31.23;25.61;100162.75;4969050;28;20209;-76
2022/07/17 08:39:27;;;;;;;3.10;2.60;;;;;;;30.40;26.75;100163.56;4971675;28;20369;-76
2022/07/17 08:41:53;;;;;;;2.90;2.70;;;;;;;29.66;27.88;100174.75;4968064;28;20216;-76
2022/07/17 08:44:18;;;;;;;3.67;2.67;;;;;;;29.12;28.66;100173.81;4969552;28;20225;-76
2022/07/17 08:46:44;;;;;;;4.27;3.10;;;;;;;28.92;29.42;100162.91;4967558;28;20229;-76
2022/07/17 08:49:11;;;;;;;5.13;2.97;;;;;;;28.88;29.36;100167.06;4967761;28;20204;-76
2022/07/17 08:51:36;;;;;;;3.20;2.90;;;;;;;28.95;29.57;100167.06;4969860;28;20353;-76
2022/07/17 08:54:02;;;;;;;2.87;2.50;;;;;;;29.14;29.26;100169.06;4962592;28;20559;-75
2022/07/17 08:56:28;;;;;;;2.80;2.53;;;;;;;29.20;29.55;100170.09;4968903;28;20225;-76
2022/07/17 08:58:55;;;;;;;3.13;2.87;;;;;;;29.16;29.33;100158.84;4968794;28;20209;-75
2022/07/17 09:01:22;;;;;;;3.87;2.47;;;;;;;28.90;29.48;100163.13;4968211;28;20465;-76
2022/07/17 09:03:56;;;;;;;3.60;2.80;;;;;;;28.78;30.02;100172.03;4967128;28;20516;-76
2022/07/17 09:06:21;;;;;;;3.13;2.93;;;;;;;28.85;30.09;100162.91;4968130;28;20341;-76
2022/07/17 09:08:47;;;;;;;2.80;2.60;;;;;;;28.92;29.74;100165.63;4968487;28;20599;-76
2022/07/17 09:11:13;;;;;;;4.17;2.80;;;;;;;28.70;30.10;100170.34;4967910;28;20222;-76
2022/07/17 09:13:45;;;;;;;4.17;2.90;;;;;;;28.62;30.04;100157.81;4968579;28;20280;-77
2022/07/17 09:16:12;;;;;;;3.63;2.80;;;;;;;28.74;30.08;100157.25;4965785;28;20229;-76
2022/07/17 09:18:51;;;;;;;3.10;2.90;;;;;;;28.84;29.40;100158.53;4971607;28;20449;-76
2022/07/17 09:21:22;;;;;;;4.60;3.27;;;;;;;28.92;29.26;100154.81;4968477;28;20475;-76
2022/07/17 09:24:07;;;;;;;2.80;2.60;;;;;;;28.95;29.28;100158.97;4967492;28;20539;-77
2022/07/17 09:26:34;;;;;;;3.17;2.87;;;;;;;29.03;29.11;100167.75;4970106;28;20822;-77
2022/07/17 09:29:01;;;;;;;3.10;2.90;;;;;;;29.18;29.12;100164.88;4972218;28;20853;-76
2022/07/17 09:31:33;;;;;;;3.30;2.83;;;;;;;29.29;28.73;100163.44;4971860;28;20499;-77
2022/07/17 09:33:59;;;;;;;2.90;2.60;;;;;;;29.15;28.65;100154.47;4969017;28;20454;-76
2022/07/17 09:36:25;;;;;;;6.90;3.57;;;;;;;29.31;28.76;100164.06;4970328;28;21047;-76
2022/07/17 09:38:56;;;;;;;2.90;2.70;;;;;;;29.49;28.62;100160.78;4971435;28;20457;-76
2022/07/17 09:41:23;;;;;;;2.60;2.40;;;;;;;29.72;28.03;100161.19;4971299;28;20534;-76
2022/07/17 09:43:52;;;;;;;3.20;2.83;;;;;;;29.88;27.94;100167.22;4971689;28;20611;-76
2022/07/17 09:46:27;;;;;;;5.10;3.00;;;;;;;30.01;27.82;100166.38;4972015;28;20985;-76
2022/07/17 09:48:58;;;;;;;5.97;3.63;;;;;;;29.99;27.94;100161.16;4965142;28;21008;-77
2022/07/17 09:51:28;;;;;;;3.43;3.13;;;;;;;29.83;28.05;100162.44;4971422;28;20968;-77
2022/07/17 09:53:55;;;;;;;3.90;2.90;;;;;;;29.90;28.20;100167.84;4968065;28;20453;-77
2022/07/17 09:56:23;;;;;;;3.83;2.80;;;;;;;30.09;27.89;100163.44;4966102;28;20912;-77
2022/07/17 09:58:52;;;;;;;4.50;2.87;;;;;;;30.20;27.92;100166.31;4965600;28;20840;-77
2022/07/17 10:01:18;;;;;;;3.00;2.70;;;;;;;30.37;27.44;100158.59;4971604;28;20453;-77
2022/07/17 10:03:44;;;;;;;2.53;2.33;;;;;;;30.41;27.29;100165.25;4969820;28;20461;-77
2022/07/17 10:06:11;;;;;;;2.90;2.70;;;;;;;30.21;26.55;100148.19;4971390;28;20981;-77
2022/07/17 10:08:38;;;;;;;3.20;2.90;;;;;;;30.48;26.83;100158.97;4968323;28;20580;-77
2022/07/17 10:11:08;;;;;;;2.87;2.67;;;;;;;30.85;26.42;100149.25;4971519;28;20487;-77
2022/07/17 10:13:39;;;;;;;3.90;3.00;;;;;;;30.90;26.34;100152.13;4970881;28;20910;-77
2022/07/17 10:16:06;;;;;;;3.10;2.80;;;;;;;31.02;26.04;100144.94;4970139;28;20491;-76
2022/07/17 10:18:42;;;;;;;5.20;2.97;;;;;;;31.13;25.69;100146.13;4970957;28;20849;-77
2022/07/17 10:21:11;;;;;;;3.80;2.60;;;;;;;30.85;26.07;100144.63;4970863;28;20477;-78
2022/07/17 10:23:37;;;;;;;3.03;2.73;;;;;;;30.73;26.61;100140.06;4970952;28;20468;-77
2022/07/17 10:26:02;;;;;;;2.57;2.37;;;;;;;30.81;26.25;100137.16;4970897;28;20473;-77
2022/07/17 10:28:39;;;;;;;4.30;2.50;;;;;;;31.07;26.46;100134.28;4966244;28;20786;-77
2022/07/17 10:31:04;;;;;;;2.53;2.27;;;;;;;31.36;25.99;100139.31;4965323;28;20264;-77
2022/07/17 10:33:30;;;;;;;2.70;2.50;;;;;;;31.42;25.55;100138.44;4939182;28;20497;-77
2022/07/17 10:35:59;;;;;;;3.33;3.13;;;;;;;31.50;24.95;100141.69;4950357;28;20250;-77
2022/07/17 10:38:26;;;;;;;4.37;2.60;;;;;;;31.44;25.17;100129.03;4950039;28;20208;-77
2022/07/17 10:41:00;;;;;;;3.47;3.10;;;;;;;31.50;25.54;100136.28;4950992;28;20889;-78
2022/07/17 10:43:26;;;;;;;3.43;2.90;;;;;;;31.63;25.00;100134.50;4947712;28;20481;-77
2022/07/17 10:45:51;;;;;;;3.63;2.70;;;;;;;31.64;24.99;100128.84;4950928;28;20830;-78
2022/07/17 10:48:22;;;;;;;2.97;2.77;;;;;;;31.70;24.95;100130.69;4943258;28;20779;-77
2022/07/17 10:50:55;;;;;;;2.90;2.37;;;;;;;31.71;24.98;100132.34;4951556;28;20214;-77
2022/07/17 10:53:28;;;;;;;2.80;2.60;;;;;;;31.74;24.95;100133.78;4951572;28;20958;-76
2022/07/17 10:55:55;;;;;;;3.73;2.57;;;;;;;31.69;24.91;100136.31;4949392;28;20474;-77
2022/07/17 10:58:38;;;;;;;3.13;2.43;;;;;;;31.66;24.92;100131.34;4950098;28;20625;-78
2022/07/17 11:01:09;;;;;;;3.60;3.30;;;;;;;31.68;24.91;100129.25;4951067;28;20578;-78
2022/07/17 11:03:38;;;;;;;2.90;2.60;;;;;;;31.70;25.11;100138.81;4955370;28;20473;-78
2022/07/17 11:06:08;;;;;;;6.17;2.33;;;;;;;31.70;25.28;100135.25;4944737;28;20861;-77
2022/07/17 11:08:56;;;;;;;5.13;2.73;;;;;;;31.65;24.94;100138.66;4956129;28;20493;-79
2022/07/17 11:11:45;;;;;;;3.20;2.60;;;;;;;31.40;25.04;100135.94;4956125;28;20449;-78
2022/07/17 11:14:12;;;;;;;3.53;2.47;;;;;;;31.31;25.13;100124.50;4937338;29;20524;-78
2022/07/17 11:16:47;;;;;;;2.37;2.17;;;;;;;31.21;25.12;100118.72;4950715;28;20458;-77
2022/07/17 11:19:27;;;;;;;3.40;2.60;;;;;;;30.99;25.72;100123.69;4944292;28;20504;-77
2022/07/17 11:21:54;;;;;;;2.33;2.13;;;;;;;30.95;25.38;100121.66;4950533;28;20461;-77
2022/07/17 11:24:19;;;;;;;2.83;2.63;;;;;;;30.76;25.60;100124.22;4950717;28;20516;-78